Latest Weather Observations for Dunalley

IDT60801

Issued at 11:35 pm EST Tuesday 30 September 2014 (issued every 30 minutes, with the page automatically refreshed every 10 minutes)

About weather observations | Map of weather stations | Latest weather observations for TAS | Other Formats
Station Details ID: 094254 Name: DUNALLEY (STROUD POINT) Lat: -42.90 Lon: 147.79 Height: 12.43 m
Data from the previous 72 hours. | See also: Recent months at Dunalley
Date/Time
EST
Temp
°C
App
Temp
°C
Dew
Point
Rel
Hum
%
Delta-T
°C
Wind Press
QNH
hPa
Press
MSL
hPa
Rain
since 9 am
mm
Dir
 
Spd
km/h
Gust
km/h
Spd
kts
Gust
kts
30/11:30pm 8.7 -0.5 3.3 69 2.3 WSW 41 50 22 27 1003.2 1003.2 11.0
30/11:00pm 8.8 -0.5 3.2 68 2.4 W 41 52 22 28 1002.4 1002.4 11.0
30/10:30pm 9.1 -0.4 3.7 69 2.3 WSW 43 52 23 28 1002.0 1002.0 11.0
30/10:00pm 9.2 -1.3 3.8 69 2.4 W 48 57 26 31 1001.2 1001.2 11.0
30/09:30pm 9.1 -1.4 3.9 70 2.3 W 48 61 26 33 1000.6 1000.6 11.0
30/09:00pm 9.0 -1.1 3.6 69 2.4 W 46 56 25 30 1000.1 1000.1 11.0
30/08:30pm 9.3 0.2 3.9 69 2.4 WSW 41 50 22 27 1000.0 1000.0 11.0
30/08:00pm 9.2 -0.4 4.4 72 2.1 W 44 54 24 29 999.1 999.1 11.0
30/07:30pm 9.6 0.9 5.8 77 1.7 WSW 41 46 22 25 998.4 998.4 11.0
30/07:17pm 9.6 0.5 6.0 78 1.7 W 43 50 23 27 998.1 998.1 11.0
30/07:00pm 9.7 -3.2 5.9 77 1.8 WSW 63 72 34 39 997.5 997.5 11.0
30/06:56pm 9.2 -4.3 5.0 75 1.9 WSW 65 72 35 39 997.3 997.3 11.0
30/06:30pm 10.6 1.7 7.7 82 1.4 WSW 44 59 24 32 996.5 996.5 11.0
30/06:22pm 10.2 1.7 8.5 89 0.8 WSW 43 48 23 26 996.3 996.3 11.0
30/06:00pm 9.5 6.3 8.4 93 0.5 S 15 24 8 13 996.1 996.1 9.8
30/05:30pm 10.5 8.3 9.3 92 0.6 S 11 15 6 8 995.2 995.2 6.0
30/05:00pm 10.5 8.3 9.3 92 0.6 S 11 19 6 10 994.7 994.7 6.0
30/04:30pm 10.5 8.7 9.6 94 0.5 S 9 13 5 7 994.0 994.0 6.0
30/04:00pm 10.8 9.8 10.3 97 0.3 S 6 9 3 5 993.2 993.2 6.0
30/03:30pm 10.2 8.5 9.7 97 0.3 S 9 13 5 7 993.7 993.7 6.0
30/03:00pm 10.6 9.3 10.0 96 0.3 S 7 9 4 5 994.2 994.2 5.2
30/02:30pm 10.6 5.3 10.0 96 0.3 S 28 37 15 20 994.3 994.3 4.0
30/02:00pm 11.9 5.8 10.3 90 0.8 S 33 43 18 23 992.8 992.8 0.0
30/01:50pm 12.7 7.6 10.6 87 1.1 S 28 37 15 20 992.5 992.5 0.0
30/01:30pm 17.8 15.1 8.9 56 4.6 WNW 13 20 7 11 992.6 992.6 0.0
30/01:00pm 17.2 14.8 10.1 63 3.8 W 13 20 7 11 993.0 993.0 0.0
30/12:30pm 16.8 11.8 9.5 62 3.8 W 26 33 14 18 993.1 993.1 0.0
30/12:00pm 17.8 13.8 9.2 57 4.5 W 20 28 11 15 993.6 993.6 0.0
30/11:30am 18.1 13.2 6.9 48 5.6 NW 22 33 12 18 993.9 993.9 0.0
30/11:00am 18.2 14.2 6.7 47 5.8 NNW 17 33 9 18 994.2 994.2 0.0
30/10:30am 18.4 12.6 6.3 45 6.0 NW 26 37 14 20 994.7 994.7 0.0
30/10:00am 18.5 13.8 6.0 44 6.2 NW 20 32 11 17 995.3 995.3 0.0
30/09:30am 18.0 13.4 6.5 47 5.7 NNW 20 37 11 20 996.0 996.0 0.0
30/09:00am 17.9 13.5 7.3 50 5.4 N 20 37 11 20 996.6 996.6 0.0
30/08:30am 16.7 12.4 5.3 47 5.5 NW 17 28 9 15 997.3 997.3 0.0
30/08:00am 16.3 11.5 5.6 49 5.2 NNW 20 43 11 23 997.6 997.6 0.0
30/07:30am 15.2 12.8 7.0 58 4.0 NNE 9 17 5 9 997.8 997.8 0.0
30/07:00am 13.5 8.4 7.5 67 3.0 ENE 24 32 13 17 997.9 997.9 0.0
30/06:30am 12.4 8.1 7.7 73 2.3 NE 20 24 11 13 998.6 998.6 0.0
30/06:00am 11.3 8.8 6.4 72 2.3 NNE 9 17 5 9 999.0 999.0 0.0
30/05:30am 11.4 8.5 6.3 71 2.4 NNE 11 22 6 12 999.2 999.2 0.0
30/05:00am 13.6 10.2 5.7 59 3.8 N 13 20 7 11 999.4 999.4 0.0
30/04:30am 14.3 11.3 4.3 51 4.6 N 9 19 5 10 999.4 999.4 0.0
30/04:00am 13.2 10.5 5.6 60 3.6 NE 9 20 5 11 999.7 999.7 0.0
30/03:30am 14.5 10.0 4.2 50 4.7 NNW 17 28 9 15 999.9 999.9 0.0
30/03:00am 14.1 10.5 4.9 54 4.3 N 13 28 7 15 1000.3 1000.3 0.0
30/02:30am 12.7 10.8 6.7 67 2.9 NE 6 13 3 7 1000.9 1000.9 0.0
30/02:00am 12.5 9.6 6.5 67 2.9 NNE 11 20 6 11 1001.4 1001.4 0.0
30/01:30am 12.7 8.1 5.8 63 3.2 NE 19 26 10 14 1001.7 1001.7 0.0
30/01:00am 14.4 10.4 4.7 52 4.5 NW 15 26 8 14 1002.1 1002.1 0.0
30/12:30am 13.9 8.9 4.8 54 4.2 NW 20 33 11 18 1002.3 1002.3 0.0
30/12:00am 14.1 8.7 4.7 53 4.4 NNW 22 37 12 20 1002.5 1002.5 0.0
 
Date/Time
EST
Temp
°C
App
Temp
°C
Dew
Point
Rel
Hum
%
Delta-T
°C
Wind Press
QNH
hPa
Press
MSL
hPa
Rain
since 9 am
mm
Dir
 
Spd
km/h
Gust
km/h
Spd
kts
Gust
kts
29/11:30pm 14.0 9.1 4.3 52 4.5 NW 19 32 10 17 1002.7 1002.7 0.0
29/11:00pm 13.4 9.2 4.0 53 4.3 NW 15 26 8 14 1003.0 1003.0 0.0
29/10:30pm 13.8 8.7 4.1 52 4.4 NW 20 30 11 16 1003.2 1003.2 0.0
29/10:00pm 13.9 8.7 3.7 50 4.6 NW 20 35 11 19 1003.3 1003.3 0.0
29/09:30pm 13.7 8.4 3.2 49 4.7 NW 20 32 11 17 1003.5 1003.5 0.0
29/09:00pm 13.4 9.0 2.9 49 4.7 WNW 15 24 8 13 1003.6 1003.6 0.0
29/08:30pm 13.7 8.9 2.6 47 4.9 WNW 17 30 9 16 1003.7 1003.7 0.0
29/08:00pm 14.5 8.3 2.4 44 5.4 WNW 24 41 13 22 1003.8 1003.8 0.0
29/07:30pm 14.3 9.6 2.9 46 5.1 WNW 17 26 9 14 1003.4 1003.4 0.0
29/07:00pm 15.4 9.8 3.2 44 5.6 WNW 22 37 12 20 1003.1 1003.1 0.0
29/06:30pm 15.6 10.3 3.1 43 5.7 WNW 20 33 11 18 1002.8 1002.8 0.0
29/06:00pm 16.2 9.7 2.9 41 6.1 WNW 26 35 14 19 1002.4 1002.4 0.0
29/05:30pm 17.3 12.2 3.9 41 6.3 W 20 32 11 17 1002.3 1002.3 0.0
29/05:00pm 17.9 13.1 4.5 41 6.4 W 19 28 10 15 1002.0 1002.0 0.0
29/04:30pm 18.2 13.0 3.7 38 6.8 W 20 32 11 17 1002.0 1002.0 0.0
29/04:00pm 18.4 12.4 3.5 37 7.0 WNW 24 43 13 23 1002.1 1002.1 0.0
29/03:30pm 18.1 11.4 3.9 39 6.7 WNW 28 43 15 23 1002.4 1002.4 0.0
29/03:00pm 18.9 12.2 3.5 36 7.3 WNW 28 44 15 24 1002.6 1002.6 0.0
29/02:41pm 18.5 10.8 2.4 34 7.4 WNW 32 59 17 32 1002.4 1002.4 0.0
29/02:30pm 18.5 10.8 2.4 34 7.4 WNW 32 44 17 24 1002.8 1002.8 0.0
29/02:00pm 18.5 11.8 3.6 37 7.0 W 28 41 15 22 1003.0 1003.0 0.0
29/01:41pm 18.0 10.2 3.1 37 6.9 W 33 52 18 28 1003.1 1003.1 0.0
29/01:30pm 18.2 9.9 2.1 34 7.3 WNW 35 52 19 28 1003.0 1003.0 0.0
29/01:15pm 17.6 9.6 1.6 34 7.2 WNW 33 52 18 28 1003.3 1003.3 0.0
29/01:00pm 17.5 10.1 1.9 35 7.0 WNW 30 44 16 24 1003.4 1003.4 0.0
29/12:32pm 17.4 9.0 1.4 34 7.1 WNW 35 56 19 30 1003.7 1003.7 0.0
29/12:30pm 17.2 8.8 1.6 35 6.9 WNW 35 48 19 26 1003.7 1003.7 0.0
29/12:04pm 17.0 8.0 2.6 38 6.5 WNW 39 57 21 31 1003.8 1003.8 0.0
29/12:00pm 16.8 7.5 3.1 40 6.3 WNW 41 57 22 31 1003.8 1003.8 0.0
29/11:54am 16.7 8.3 3.7 42 6.0 WNW 37 57 20 31 1003.6 1003.6 0.0
29/11:30am 16.8 10.0 3.1 40 6.3 WNW 28 44 15 24 1003.4 1003.4 0.0
29/11:00am 16.4 10.8 3.5 42 6.0 WNW 22 35 12 19 1003.7 1003.7 0.0
29/10:40am 15.6 7.9 2.1 40 6.0 WNW 32 52 17 28 1003.8 1003.8 0.0
29/10:30am 15.7 7.3 1.4 38 6.3 WNW 35 52 19 28 1003.9 1003.9 0.0
29/10:00am 15.4 7.8 2.9 43 5.7 WNW 32 46 17 25 1003.9 1003.9 0.0
29/09:30am 14.8 8.6 4.2 49 4.9 W 26 41 14 22 1003.8 1003.8 0.0
29/09:00am 14.1 8.2 4.1 51 4.6 W 24 35 13 19 1003.6 1003.6 0.0
29/08:30am 13.7 8.5 3.8 51 4.5 WNW 20 33 11 18 1003.1 1003.1 0.0
29/08:00am 13.2 7.3 4.1 54 4.2 WNW 24 32 13 17 1002.6 1002.6 0.0
29/07:30am 12.7 7.7 4.4 57 3.8 WNW 20 33 11 18 1002.4 1002.4 0.0
29/07:00am 11.9 6.5 4.6 61 3.3 WNW 22 33 12 18 1001.8 1001.8 0.0
29/06:30am 11.2 5.9 4.9 65 2.9 W 22 37 12 20 1001.0 1001.0 0.0
29/06:00am 10.8 4.8 5.3 69 2.5 W 26 39 14 21 1000.3 1000.3 0.0
29/05:47am 10.8 4.3 4.9 67 2.7 W 28 46 15 25 999.7 999.7 0.0
29/05:30am 11.4 3.2 4.6 63 3.1 W 37 52 20 28 999.0 999.0 0.0
29/05:00am 11.5 3.9 5.6 67 2.8 WNW 35 56 19 30 998.7 998.7 0.0
29/04:30am 12.2 3.4 5.6 64 3.1 WNW 41 61 22 33 998.0 998.0 0.0
29/04:02am 13.4 3.7 4.0 53 4.3 WNW 44 67 24 36 997.6 997.6 0.0
29/04:00am 13.4 3.7 3.8 52 4.4 WNW 44 61 24 33 997.4 997.4 0.0
29/03:44am 14.1 6.3 2.7 46 5.1 WNW 33 54 18 29 996.5 996.5 0.0
29/03:30am 14.2 7.2 1.8 43 5.4 WNW 28 41 15 22 996.5 996.5 0.0
29/03:00am 13.6 8.2 2.5 47 4.9 NW 20 30 11 16 995.6 995.6 0.0
29/02:30am 14.4 7.0 1.7 42 5.5 WNW 30 48 16 26 996.6 996.6 0.0
29/02:00am 14.1 6.4 2.4 45 5.2 WNW 32 54 17 29 996.6 996.6 0.0
29/01:42am 14.5 6.8 2.1 43 5.5 WNW 32 52 17 28 996.8 996.8 0.0
29/01:30am 14.6 7.6 1.8 42 5.6 WNW 28 41 15 22 996.8 996.8 0.0
29/01:07am 15.1 8.0 1.6 40 5.9 WNW 28 46 15 25 996.7 996.7 0.0
29/01:00am 15.0 9.8 2.2 42 5.7 WNW 19 39 10 21 996.7 996.7 0.0
29/12:30am 15.9 10.5 4.3 46 5.4 WNW 22 35 12 19 996.8 996.8 0.0
29/12:00am 16.4 12.5 9.3 63 3.7 WNW 20 26 11 14 996.6 996.6 0.0
 
Date/Time
EST
Temp
°C
App
Temp
°C
Dew
Point
Rel
Hum
%
Delta-T
°C
Wind Press
QNH
hPa
Press
MSL
hPa
Rain
since 9 am
mm
Dir
 
Spd
km/h
Gust
km/h
Spd
kts
Gust
kts
28/11:30pm 16.3 13.2 10.4 68 3.1 NNW 17 30 9 16 996.5 996.5 0.0
28/11:00pm 17.0 13.8 10.1 64 3.7 N 17 28 9 15 996.4 996.4 0.0
28/10:30pm 17.8 14.8 9.4 58 4.4 N 15 24 8 13 996.7 996.7 0.0
28/10:00pm 18.2 15.5 9.0 55 4.8 N 13 26 7 14 997.2 997.2 0.0
28/09:30pm 17.7 15.7 8.6 55 4.7 N 9 13 5 7 997.2 997.2 0.0
28/09:00pm 18.7 15.6 8.7 52 5.2 N 15 26 8 14 997.4 997.4 0.0
28/08:30pm 19.4 15.4 9.0 51 5.5 NNW 20 32 11 17 997.7 997.7 0.0
28/08:00pm 18.9 15.9 9.1 53 5.2 NNW 15 28 8 15 997.7 997.7 0.0
28/07:30pm 19.2 14.9 9.4 53 5.2 N 22 35 12 19 997.3 997.3 0.0
28/07:00pm 19.0 14.7 9.5 54 5.1 N 22 33 12 18 997.4 997.4 0.0
28/06:30pm 19.1 14.8 9.3 53 5.2 N 22 35 12 19 997.4 997.4 0.0
28/06:12pm 19.3 13.5 9.5 53 5.2 N 30 50 16 27 997.2 997.2 0.0
28/06:00pm 19.6 14.1 9.2 51 5.5 N 28 46 15 25 997.0 997.0 0.0
28/05:30pm 20.5 13.2 8.8 47 6.2 NNW 37 67 20 36 996.8 996.8 0.0
28/05:00pm 20.9 13.5 8.2 44 6.7 N 37 67 20 36 996.2 996.2 0.0
28/04:30pm 22.3 14.2 6.9 37 7.9 NNW 39 65 21 35 996.3 996.3 0.0
28/04:00pm 22.5 15.5 6.7 36 8.2 NNW 33 54 18 29 996.8 996.8 0.0
28/03:30pm 23.4 15.8 5.8 32 8.9 NNW 35 63 19 34 997.7 997.7 0.0
28/03:00pm 23.9 14.8 5.8 31 9.3 NW 43 85 23 46 998.1 998.1 0.0
28/02:30pm 24.7 15.8 5.0 28 9.9 NW 41 69 22 37 997.7 997.7 0.0
28/02:00pm 25.7 14.5 4.2 25 10.8 NW 52 93 28 50 997.8 997.8 0.0
28/01:30pm 26.7 15.4 3.2 22 11.6 NW 52 89 28 48 997.2 997.2 0.0
28/01:00pm 27.4 17.1 4.5 23 11.7 NNW 48 74 26 40 997.6 997.6 0.0
28/12:30pm 26.9 17.9 6.3 27 10.8 NNW 43 69 23 37 998.5 998.5 0.0
28/12:20pm 26.5 18.3 6.5 28 10.5 NNW 39 70 21 38 998.9 998.9 0.0
28/12:06pm 26.2 19.5 8.2 32 9.7 NW 33 52 18 28 999.5 999.5 0.0
28/12:00pm 26.0 22.1 8.5 33 9.5 N 19 32 10 17 999.7 999.7 0.0
28/11:30am 24.5 19.7 8.9 37 8.4 N 24 37 13 20 1000.0 1000.0 0.0
28/11:00am 23.5 19.6 9.5 41 7.6 N 20 39 11 21 1000.9 1000.9 0.0
28/10:30am 21.3 18.4 11.1 52 5.6 NNE 17 33 9 18 1001.2 1001.2 0.0
28/10:00am 21.2 17.6 10.4 50 5.9 N 20 30 11 16 1001.7 1001.7 0.0
28/09:30am 20.4 16.4 10.5 53 5.4 N 22 33 12 18 1002.5 1002.5 0.0
28/09:00am 20.3 16.9 10.4 53 5.4 N 19 32 10 17 1002.8 1002.8 0.0
28/08:30am 19.5 16.1 10.5 56 4.9 NNW 19 26 10 14 1003.2 1003.2 0.0
28/08:00am 18.3 14.1 9.6 57 4.6 NNW 22 35 12 19 1003.5 1003.5 0.0
28/07:30am 18.0 14.3 9.6 58 4.4 NNW 19 30 10 16 1004.0 1004.0 0.0
28/07:00am 16.6 12.9 9.5 63 3.7 N 19 28 10 15 1004.4 1004.4 0.0
28/06:30am 15.6 13.4 9.5 67 3.2 NNE 11 20 6 11 1004.9 1004.9 0.0
28/06:00am 15.0 11.4 9.8 71 2.7 NE 19 26 10 14 1005.5 1005.5 0.0
28/05:30am 15.5 11.6 9.6 68 3.1 N 20 33 11 18 1005.8 1005.8 0.0
28/05:00am 15.5 11.6 9.6 68 3.1 N 20 32 11 17 1006.0 1006.0 0.0
28/04:30am 14.9 11.5 9.3 69 2.9 N 17 32 9 17 1006.3 1006.3 0.0
28/04:00am 14.1 10.8 9.7 75 2.3 NNE 17 22 9 12 1006.7 1006.7 0.0
28/03:30am 14.2 10.4 9.2 72 2.5 NNE 19 24 10 13 1006.9 1006.9 0.0
28/03:00am 14.4 10.4 9.2 71 2.7 NNE 20 30 11 16 1007.3 1007.3 0.0
28/02:30am 14.2 10.2 9.0 71 2.6 NNE 20 30 11 16 1007.8 1007.8 0.0
28/02:00am 14.1 9.7 8.9 71 2.6 NNE 22 32 12 17 1008.4 1008.4 0.0
28/01:30am 13.7 8.6 9.2 74 2.3 NE 26 35 14 19 1008.8 1008.8 0.0
28/01:00am 13.3 9.3 9.2 76 2.1 NNE 20 26 11 14 1009.7 1009.7 0.0
28/12:30am 13.7 8.5 9.0 73 2.4 NNE 26 39 14 21 1010.1 1010.1 0.0
28/12:00am 13.6 9.8 9.1 74 2.3 NNE 19 28 10 15 1010.5 1010.5 0.0

Other Formats:

Comma delimited format used in spreadsheet applications
http://www.bom.gov.au/fwo/IDT60801/IDT60801.94951.axf

JavaScript Object Notation format (JSON) in row-major order
http://www.bom.gov.au/fwo/IDT60801/IDT60801.94951.json